Loda, Illinois
Current Conditions -  °F | °C
As of 10:30 PM on Friday 28 Nov 2014 (Local Time) from KTIP Reporting Station
Clear Clear  
Wind Chill: 26°   Ceiling: Unl
Heat Index: 35°   Visibility: 10mi
Dew Point: 31°   Wind: 12mph
Humidity: 86%   Direction: 170°S
Pressure: 29.92"   Gusts: NA
Location:  40.52°N, 88.07°W
Report Text: KTIP 290430Z AUTO 17010KT 10SM CLR 02/M01 A2992 RMK AO2 T00151006
Loading
Personal Weather Stations






























Interactive Weather Map New forecast layout! Learn more

10-Day Weather Forecast

Advertisements
Track Severe Weather on mobile